Terminal Aerodrome Forecast
Issued by NWS Flagstaff, AZ

Home | Current Version | Previous Version | Text Only | Print | Product List | Glossary On
Versions: 1 2 3 4 5 6 7 8 9 10 11 12 13 14 15 16 17 18 19 20 21 22
000
FTUS45 KFGZ 280800 AAC
TAFFLG
TAF AMD
KFLG 280828Z 2808/2906 VRB02KT 1/4SM FZFG VV001
      TEMPO 2808/2812 1/2SM FZFG VV002
     FM281200 VRB02KT 2SM BR SCT002 SCT009 BKN018
     FM281700 VRB06KT P6SM BKN200=

USA.gov is the U.S. government's official web portal to all federal, state and local government web resources and services.